sensor_id;sensor_type;location;lat;lon;timestamp;pressure;altitude;pressure_sealevel;temperature;humidity
38912;BME280;28444;48.056;14.408;2023-02-01T00:01:09;98010.81;;;2.42;88.52
38912;BME280;28444;48.056;14.408;2023-02-01T00:03:36;98002.50;;;2.40;88.21
38912;BME280;28444;48.056;14.408;2023-02-01T00:06:03;97995.63;;;2.45;88.72
38912;BME280;28444;48.056;14.408;2023-02-01T00:08:29;97998.06;;;2.43;88.86
38912;BME280;28444;48.056;14.408;2023-02-01T00:11:07;98003.00;;;2.33;90.39
38912;BME280;28444;48.056;14.408;2023-02-01T00:13:37;97994.41;;;2.40;90.52
38912;BME280;28444;48.056;14.408;2023-02-01T00:16:18;97996.13;;;2.38;90.21
38912;BME280;28444;48.056;14.408;2023-02-01T00:18:46;98001.25;;;2.47;90.03
38912;BME280;28444;48.056;14.408;2023-02-01T00:21:14;97994.88;;;2.45;89.73
38912;BME280;28444;48.056;14.408;2023-02-01T00:23:41;97992.44;;;2.41;89.69
38912;BME280;28444;48.056;14.408;2023-02-01T00:26:14;97986.56;;;2.37;90.51
38912;BME280;28444;48.056;14.408;2023-02-01T00:28:41;97972.06;;;2.40;89.91
38912;BME280;28444;48.056;14.408;2023-02-01T00:31:08;97970.13;;;2.35;90.37
38912;BME280;28444;48.056;14.408;2023-02-01T00:33:35;97974.78;;;2.40;90.50
38912;BME280;28444;48.056;14.408;2023-02-01T00:36:04;97959.31;;;2.35;89.79
38912;BME280;28444;48.056;14.408;2023-02-01T00:38:33;97965.69;;;2.37;89.89
38912;BME280;28444;48.056;14.408;2023-02-01T00:41:04;97964.44;;;2.44;90.80
38912;BME280;28444;48.056;14.408;2023-02-01T00:43:32;97983.34;;;2.44;91.02
38912;BME280;28444;48.056;14.408;2023-02-01T00:45:59;97975.25;;;2.38;91.06
38912;BME280;28444;48.056;14.408;2023-02-01T00:48:26;97985.06;;;2.36;91.94
38912;BME280;28444;48.056;14.408;2023-02-01T00:50:53;97971.38;;;2.23;92.54
38912;BME280;28444;48.056;14.408;2023-02-01T00:53:19;97978.50;;;2.26;92.64
38912;BME280;28444;48.056;14.408;2023-02-01T00:55:47;97968.44;;;2.26;93.23
38912;BME280;28444;48.056;14.408;2023-02-01T00:58:14;97987.06;;;2.24;93.92
38912;BME280;28444;48.056;14.408;2023-02-01T01:00:41;97984.84;;;2.28;94.30
38912;BME280;28444;48.056;14.408;2023-02-01T01:03:07;97983.41;;;2.27;93.45
38912;BME280;28444;48.056;14.408;2023-02-01T01:05:47;97989.31;;;2.14;94.27
38912;BME280;28444;48.056;14.408;2023-02-01T01:08:15;97975.59;;;2.18;95.60
38912;BME280;28444;48.056;14.408;2023-02-01T01:10:42;97968.72;;;2.11;95.30
38912;BME280;28444;48.056;14.408;2023-02-01T01:13:10;97968.94;;;2.13;95.56
38912;BME280;28444;48.056;14.408;2023-02-01T01:15:38;97963.28;;;2.23;94.16
38912;BME280;28444;48.056;14.408;2023-02-01T01:18:05;97976.56;;;2.15;94.56
38912;BME280;28444;48.056;14.408;2023-02-01T01:20:37;97966.97;;;2.20;94.49
38912;BME280;28444;48.056;14.408;2023-02-01T01:23:06;97971.88;;;2.21;94.19
38912;BME280;28444;48.056;14.408;2023-02-01T01:25:39;97960.56;;;2.28;94.59
38912;BME280;28444;48.056;14.408;2023-02-01T01:28:06;97959.63;;;2.20;94.06
38912;BME280;28444;48.056;14.408;2023-02-01T01:30:34;97951.25;;;2.24;94.76
38912;BME280;28444;48.056;14.408;2023-02-01T01:33:01;97961.84;;;2.22;94.69
38912;BME280;28444;48.056;14.408;2023-02-01T01:35:31;97954.22;;;2.20;94.20
38912;BME280;28444;48.056;14.408;2023-02-01T01:37:59;97950.53;;;2.23;94.24
38912;BME280;28444;48.056;14.408;2023-02-01T01:40:27;97955.63;;;2.32;93.70
38912;BME280;28444;48.056;14.408;2023-02-01T01:42:54;97950.03;;;2.30;93.83
38912;BME280;28444;48.056;14.408;2023-02-01T01:45:33;97952.47;;;2.34;93.34
38912;BME280;28444;48.056;14.408;2023-02-01T01:48:14;97951.00;;;2.33;94.12
38912;BME280;28444;48.056;14.408;2023-02-01T01:50:47;97955.38;;;2.41;93.22
38912;BME280;28444;48.056;14.408;2023-02-01T01:53:19;97947.31;;;2.30;94.12
38912;BME280;28444;48.056;14.408;2023-02-01T01:55:47;97942.16;;;2.32;93.45
38912;BME280;28444;48.056;14.408;2023-02-01T01:58:17;97951.72;;;2.33;93.88
38912;BME280;28444;48.056;14.408;2023-02-01T02:00:46;97947.81;;;2.29;94.42
38912;BME280;28444;48.056;14.408;2023-02-01T02:03:40;97952.44;;;2.39;93.92
38912;BME280;28444;48.056;14.408;2023-02-01T02:09:25;97951.69;;;2.39;93.67
38912;BME280;28444;48.056;14.408;2023-02-01T02:11:52;97958.06;;;2.47;93.48
38912;BME280;28444;48.056;14.408;2023-02-01T02:14:21;97951.94;;;2.41;93.39
38912;BME280;28444;48.056;14.408;2023-02-01T02:17:20;97954.59;;;2.47;92.99
38912;BME280;28444;48.056;14.408;2023-02-01T02:20:22;97951.69;;;2.45;93.42
38912;BME280;28444;48.056;14.408;2023-02-01T02:26:34;97958.28;;;2.55;93.20
38912;BME280;28444;48.056;14.408;2023-02-01T02:35:34;97968.56;;;2.56;94.22
38912;BME280;28444;48.056;14.408;2023-02-01T02:38:19;97964.88;;;2.54;93.49
38912;BME280;28444;48.056;14.408;2023-02-01T02:45:08;97943.28;;;2.54;93.61
38912;BME280;28444;48.056;14.408;2023-02-01T02:49:20;97942.75;;;2.67;93.10
38912;BME280;28444;48.056;14.408;2023-02-01T02:51:09;97938.38;;;2.58;93.47
38912;BME280;28444;48.056;14.408;2023-02-01T02:54:24;97940.03;;;2.67;93.20
38912;BME280;28444;48.056;14.408;2023-02-01T02:57:11;97930.69;;;2.68;92.93
38912;BME280;28444;48.056;14.408;2023-02-01T02:59:58;97918.91;;;2.65;92.73
38912;BME280;28444;48.056;14.408;2023-02-01T03:02:46;97922.38;;;2.65;93.97
38912;BME280;28444;48.056;14.408;2023-02-01T03:05:37;97914.47;;;2.73;92.86
38912;BME280;28444;48.056;14.408;2023-02-01T03:08:22;97910.34;;;2.67;93.55
38912;BME280;28444;48.056;14.408;2023-02-01T03:11:05;97904.41;;;2.74;93.01
38912;BME280;28444;48.056;14.408;2023-02-01T03:13:59;97904.88;;;2.78;92.64
38912;BME280;28444;48.056;14.408;2023-02-01T03:16:36;97901.72;;;2.68;92.81
38912;BME280;28444;48.056;14.408;2023-02-01T03:19:27;97907.19;;;2.62;93.37
38912;BME280;28444;48.056;14.408;2023-02-01T03:21:59;97914.03;;;2.63;93.05
38912;BME280;28444;48.056;14.408;2023-02-01T03:24:38;97908.84;;;2.71;93.50
38912;BME280;28444;48.056;14.408;2023-02-01T03:27:32;97899.47;;;2.78;93.07
38912;BME280;28444;48.056;14.408;2023-02-01T03:30:13;97901.72;;;2.74;93.47
38912;BME280;28444;48.056;14.408;2023-02-01T03:32:47;97888.16;;;2.79;92.53
38912;BME280;28444;48.056;14.408;2023-02-01T03:35:40;97888.16;;;2.79;93.12
38912;BME280;28444;48.056;14.408;2023-02-01T03:38:22;97887.16;;;2.82;92.68
38912;BME280;28444;48.056;14.408;2023-02-01T03:41:27;97881.47;;;2.92;90.48
38912;BME280;28444;48.056;14.408;2023-02-01T03:44:12;97884.44;;;2.82;91.02
38912;BME280;28444;48.056;14.408;2023-02-01T03:47:03;97876.06;;;2.86;90.63
38912;BME280;28444;48.056;14.408;2023-02-01T03:49:36;97873.66;;;2.82;90.68
38912;BME280;28444;48.056;14.408;2023-02-01T03:52:06;97880.22;;;2.93;91.40
38912;BME280;28444;48.056;14.408;2023-02-01T03:54:35;97878.22;;;2.99;89.46
38912;BME280;28444;48.056;14.408;2023-02-01T03:57:07;97872.53;;;3.02;88.83
38912;BME280;28444;48.056;14.408;2023-02-01T03:59:40;97877.25;;;2.96;88.95
38912;BME280;28444;48.056;14.408;2023-02-01T04:02:07;97875.28;;;2.97;88.51
38912;BME280;28444;48.056;14.408;2023-02-01T04:04:34;97876.97;;;3.00;87.54
38912;BME280;28444;48.056;14.408;2023-02-01T04:07:01;97865.72;;;2.96;88.75
38912;BME280;28444;48.056;14.408;2023-02-01T04:09:28;97860.03;;;2.99;87.66
38912;BME280;28444;48.056;14.408;2023-02-01T04:11:55;97861.03;;;2.96;88.33
38912;BME280;28444;48.056;14.408;2023-02-01T04:14:21;97852.13;;;3.01;88.16
38912;BME280;28444;48.056;14.408;2023-02-01T04:16:48;97858.75;;;3.06;87.76
38912;BME280;28444;48.056;14.408;2023-02-01T04:19:15;97866.88;;;3.00;88.26
38912;BME280;28444;48.056;14.408;2023-02-01T04:21:41;97866.94;;;2.95;88.07
38912;BME280;28444;48.056;14.408;2023-02-01T04:24:08;97863.22;;;2.98;88.72
38912;BME280;28444;48.056;14.408;2023-02-01T04:26:35;97866.88;;;3.00;89.17
38912;BME280;28444;48.056;14.408;2023-02-01T04:29:02;97876.44;;;3.07;88.48
38912;BME280;28444;48.056;14.408;2023-02-01T04:31:28;97861.22;;;3.04;88.40
38912;BME280;28444;48.056;14.408;2023-02-01T04:33:55;97866.59;;;3.09;88.23
38912;BME280;28444;48.056;14.408;2023-02-01T04:36:24;97861.66;;;3.08;88.24
38912;BME280;28444;48.056;14.408;2023-02-01T04:38:51;97854.81;;;3.07;87.83
38912;BME280;28444;48.056;14.408;2023-02-01T04:41:19;97849.69;;;3.03;88.68
38912;BME280;28444;48.056;14.408;2023-02-01T04:43:47;97854.06;;;3.06;88.38
38912;BME280;28444;48.056;14.408;2023-02-01T04:46:14;97845.25;;;3.06;88.58
38912;BME280;28444;48.056;14.408;2023-02-01T04:48:41;97838.88;;;3.03;88.27
38912;BME280;28444;48.056;14.408;2023-02-01T04:51:09;97834.91;;;3.04;88.87
38912;BME280;28444;48.056;14.408;2023-02-01T04:53:36;97839.03;;;3.11;88.01
38912;BME280;28444;48.056;14.408;2023-02-01T04:56:03;97834.66;;;3.08;88.13
38912;BME280;28444;48.056;14.408;2023-02-01T04:58:30;97824.28;;;3.12;87.51
38912;BME280;28444;48.056;14.408;2023-02-01T05:00:56;97824.56;;;3.08;88.29
38912;BME280;28444;48.056;14.408;2023-02-01T05:03:23;97833.44;;;3.09;88.65
38912;BME280;28444;48.056;14.408;2023-02-01T05:05:50;97831.38;;;3.15;87.67
38912;BME280;28444;48.056;14.408;2023-02-01T05:08:18;97829.69;;;3.12;88.37
38912;BME280;28444;48.056;14.408;2023-02-01T05:10:45;97834.91;;;3.04;88.59
38912;BME280;28444;48.056;14.408;2023-02-01T05:13:11;97835.63;;;3.10;88.46
38912;BME280;28444;48.056;14.408;2023-02-01T05:15:56;97826.72;;;3.16;87.83
38912;BME280;28444;48.056;14.408;2023-02-01T05:18:23;97828.50;;;3.07;88.45
38912;BME280;28444;48.056;14.408;2023-02-01T05:20:50;97816.72;;;3.05;88.58
38912;BME280;28444;48.056;14.408;2023-02-01T05:23:16;97824.81;;;3.10;88.40
38912;BME280;28444;48.056;14.408;2023-02-01T05:25:43;97821.66;;;3.06;88.61
38912;BME280;28444;48.056;14.408;2023-02-01T05:28:09;97819.91;;;3.09;88.56
38912;BME280;28444;48.056;14.408;2023-02-01T05:30:36;97833.19;;;3.07;89.12
38912;BME280;28444;48.056;14.408;2023-02-01T05:33:05;97834.38;;;3.11;88.15
38912;BME280;28444;48.056;14.408;2023-02-01T05:35:32;97824.28;;;3.12;88.57
38912;BME280;28444;48.056;14.408;2023-02-01T05:37:59;97824.81;;;3.10;88.16
38912;BME280;28444;48.056;14.408;2023-02-01T05:40:25;97819.16;;;3.08;88.45
38912;BME280;28444;48.056;14.408;2023-02-01T05:42:52;97818.16;;;3.11;88.71
38912;BME280;28444;48.056;14.408;2023-02-01T05:45:18;97820.13;;;3.11;88.82
38912;BME280;28444;48.056;14.408;2023-02-01T05:47:45;97827.50;;;3.10;87.98
38912;BME280;28444;48.056;14.408;2023-02-01T05:50:12;97825.03;;;3.12;88.37
38912;BME280;28444;48.056;14.408;2023-02-01T05:52:38;97822.56;;;3.14;88.02
38912;BME280;28444;48.056;14.408;2023-02-01T05:55:05;97831.84;;;3.19;87.81
38912;BME280;28444;48.056;14.408;2023-02-01T05:57:32;97826.50;;;3.13;87.43
38912;BME280;28444;48.056;14.408;2023-02-01T05:59:59;97832.13;;;3.16;87.36
38912;BME280;28444;48.056;14.408;2023-02-01T06:02:26;97834.53;;;3.19;87.31
38912;BME280;28444;48.056;14.408;2023-02-01T06:04:53;97818.84;;;3.18;87.23
38912;BME280;28444;48.056;14.408;2023-02-01T06:07:19;97812.72;;;3.17;87.33
38912;BME280;28444;48.056;14.408;2023-02-01T06:09:46;97809.72;;;3.21;86.94
38912;BME280;28444;48.056;14.408;2023-02-01T06:12:13;97811.19;;;3.22;87.32
38912;BME280;28444;48.056;14.408;2023-02-01T06:14:40;97807.59;;;3.13;87.39
38912;BME280;28444;48.056;14.408;2023-02-01T06:17:07;97810.06;;;3.11;87.31
38912;BME280;28444;48.056;14.408;2023-02-01T06:19:34;97805.66;;;3.08;87.63
38912;BME280;28444;48.056;14.408;2023-02-01T06:22:01;97809.03;;;3.14;86.96
38912;BME280;28444;48.056;14.408;2023-02-01T06:24:28;97801.00;;;3.09;88.05
38912;BME280;28444;48.056;14.408;2023-02-01T06:26:54;97795.81;;;3.11;86.88
38912;BME280;28444;48.056;14.408;2023-02-01T06:29:21;97799.75;;;3.10;86.83
38912;BME280;28444;48.056;14.408;2023-02-01T06:31:48;97799.47;;;3.13;86.87
38912;BME280;28444;48.056;14.408;2023-02-01T06:34:14;97798.75;;;3.13;87.31
38912;BME280;28444;48.056;14.408;2023-02-01T06:36:41;97809.03;;;3.14;86.82
38912;BME280;28444;48.056;14.408;2023-02-01T06:39:08;97814.97;;;3.13;86.40
38912;BME280;28444;48.056;14.408;2023-02-01T06:41:34;97818.84;;;3.18;87.10
38912;BME280;28444;48.056;14.408;2023-02-01T06:44:01;97839.47;;;3.21;85.84
38912;BME280;28444;48.056;14.408;2023-02-01T06:46:28;97832.03;;;3.27;85.38
38912;BME280;28444;48.056;14.408;2023-02-01T06:48:54;97831.34;;;3.21;85.97
38912;BME280;28444;48.056;14.408;2023-02-01T06:51:26;97833.06;;;3.24;86.28
38912;BME280;28444;48.056;14.408;2023-02-01T06:53:54;97848.75;;;3.25;85.68
38912;BME280;28444;48.056;14.408;2023-02-01T06:56:22;97846.06;;;3.25;85.27
38912;BME280;28444;48.056;14.408;2023-02-01T06:58:49;97851.19;;;3.29;85.76
38912;BME280;28444;48.056;14.408;2023-02-01T07:01:15;97843.41;;;3.20;85.87
38912;BME280;28444;48.056;14.408;2023-02-01T07:03:42;97840.44;;;3.23;85.56
38912;BME280;28444;48.056;14.408;2023-02-01T07:06:09;97834.44;;;3.30;86.04
38912;BME280;28444;48.056;14.408;2023-02-01T07:08:37;97835.47;;;3.27;85.31
38912;BME280;28444;48.056;14.408;2023-02-01T07:11:06;97819.91;;;3.33;85.07
38912;BME280;28444;48.056;14.408;2023-02-01T07:13:34;97823.88;;;3.32;85.25
38912;BME280;28444;48.056;14.408;2023-02-01T07:16:02;97826.84;;;3.29;85.03
38912;BME280;28444;48.056;14.408;2023-02-01T07:18:29;97831.47;;;3.34;84.51
38912;BME280;28444;48.056;14.408;2023-02-01T07:20:57;97823.59;;;3.36;84.85
38912;BME280;28444;48.056;14.408;2023-02-01T07:23:24;97823.59;;;3.36;85.03
38912;BME280;28444;48.056;14.408;2023-02-01T07:25:58;97819.16;;;3.38;84.59
38912;BME280;28444;48.056;14.408;2023-02-01T07:28:27;97820.59;;;3.40;84.56
38912;BME280;28444;48.056;14.408;2023-02-01T07:30:54;97812.78;;;3.36;85.10
38912;BME280;28444;48.056;14.408;2023-02-01T07:33:23;97799.41;;;3.44;83.99
38912;BME280;28444;48.056;14.408;2023-02-01T07:35:53;97794.47;;;3.48;83.49
38912;BME280;28444;48.056;14.408;2023-02-01T07:38:20;97788.56;;;3.49;83.64
38912;BME280;28444;48.056;14.408;2023-02-01T07:40:48;97780.44;;;3.49;83.32
38912;BME280;28444;48.056;14.408;2023-02-01T07:43:15;97805.00;;;3.51;82.69
38912;BME280;28444;48.056;14.408;2023-02-01T07:45:42;97808.38;;;3.57;81.72
38912;BME280;28444;48.056;14.408;2023-02-01T07:48:09;97804.44;;;3.58;82.08
38912;BME280;28444;48.056;14.408;2023-02-01T07:50:35;97799.41;;;3.68;81.48
38912;BME280;28444;48.056;14.408;2023-02-01T07:53:02;97800.59;;;3.73;81.61
38912;BME280;28444;48.056;14.408;2023-02-01T07:55:29;97803.53;;;3.75;81.07
38912;BME280;28444;48.056;14.408;2023-02-01T07:57:58;97795.84;;;3.79;80.51
38912;BME280;28444;48.056;14.408;2023-02-01T08:00:26;97787.16;;;3.86;80.00
38912;BME280;28444;48.056;14.408;2023-02-01T08:03:11;97789.91;;;3.80;80.43
38912;BME280;28444;48.056;14.408;2023-02-01T08:05:38;97781.50;;;3.84;79.88
38912;BME280;28444;48.056;14.408;2023-02-01T08:08:05;97778.38;;;3.80;80.42
38912;BME280;28444;48.056;14.408;2023-02-01T08:10:33;97779.47;;;3.90;80.28
38912;BME280;28444;48.056;14.408;2023-02-01T08:13:02;97779.47;;;3.90;79.50
38912;BME280;28444;48.056;14.408;2023-02-01T08:15:29;97766.31;;;4.00;79.75
38912;BME280;28444;48.056;14.408;2023-02-01T08:17:56;97769.09;;;3.94;80.08
38912;BME280;28444;48.056;14.408;2023-02-01T08:20:24;97773.03;;;3.93;79.70
38912;BME280;28444;48.056;14.408;2023-02-01T08:22:54;97770.09;;;3.91;79.54
38912;BME280;28444;48.056;14.408;2023-02-01T08:25:22;97754.09;;;3.93;78.94
38912;BME280;28444;48.056;14.408;2023-02-01T08:27:50;97757.97;;;3.98;79.33
38912;BME280;28444;48.056;14.408;2023-02-01T08:30:17;97750.09;;;4.00;78.79
38912;BME280;28444;48.056;14.408;2023-02-01T08:32:43;97745.31;;;4.06;78.25
38912;BME280;28444;48.056;14.408;2023-02-01T08:35:10;97739.53;;;4.15;77.78
38912;BME280;28444;48.056;14.408;2023-02-01T08:37:37;97738.59;;;4.13;78.09
38912;BME280;28444;48.056;14.408;2023-02-01T08:40:04;97747.56;;;4.21;77.27
38912;BME280;28444;48.056;14.408;2023-02-01T08:42:31;97734.84;;;4.16;77.64
38912;BME280;28444;48.056;14.408;2023-02-01T08:45:18;97743.41;;;4.20;76.72
38912;BME280;28444;48.056;14.408;2023-02-01T08:47:46;97749.53;;;4.20;76.68
38912;BME280;28444;48.056;14.408;2023-02-01T08:50:16;97737.41;;;4.27;75.93
38912;BME280;28444;48.056;14.408;2023-02-01T08:52:43;97736.44;;;4.24;76.50
38912;BME280;28444;48.056;14.408;2023-02-01T08:55:11;97741.56;;;4.28;76.46
38912;BME280;28444;48.056;14.408;2023-02-01T08:57:38;97731.97;;;4.27;76.18
38912;BME280;28444;48.056;14.408;2023-02-01T09:00:08;97742.50;;;4.30;76.54
38912;BME280;28444;48.056;14.408;2023-02-01T09:02:36;97748.22;;;4.27;76.22
38912;BME280;28444;48.056;14.408;2023-02-01T09:05:04;97742.44;;;4.36;75.30
38912;BME280;28444;48.056;14.408;2023-02-01T09:07:32;97748.78;;;4.39;76.47
38912;BME280;28444;48.056;14.408;2023-02-01T09:09:59;97749.59;;;4.33;75.72
38912;BME280;28444;48.056;14.408;2023-02-01T09:12:30;97745.16;;;4.36;75.46
38912;BME280;28444;48.056;14.408;2023-02-01T09:14:57;97741.84;;;4.43;75.28
38912;BME280;28444;48.056;14.408;2023-02-01T09:17:27;97740.88;;;4.41;75.11
38912;BME280;28444;48.056;14.408;2023-02-01T09:19:55;97723.38;;;4.42;74.88
38912;BME280;28444;48.056;14.408;2023-02-01T09:22:21;97736.94;;;4.42;74.43
38912;BME280;28444;48.056;14.408;2023-02-01T09:24:48;97742.56;;;4.44;75.25
38912;BME280;28444;48.056;14.408;2023-02-01T09:27:15;97749.13;;;4.48;74.33
38912;BME280;28444;48.056;14.408;2023-02-01T09:29:42;97747.25;;;4.43;74.39
38912;BME280;28444;48.056;14.408;2023-02-01T09:32:09;97759.53;;;4.44;74.42
38912;BME280;28444;48.056;14.408;2023-02-01T09:34:36;97748.72;;;4.44;74.00
38912;BME280;28444;48.056;14.408;2023-02-01T09:37:03;97747.38;;;4.51;74.20
38912;BME280;28444;48.056;14.408;2023-02-01T09:39:30;97770.50;;;4.52;73.75
38912;BME280;28444;48.056;14.408;2023-02-01T09:42:58;97760.19;;;4.50;74.11
38912;BME280;28444;48.056;14.408;2023-02-01T09:45:38;97757.69;;;4.52;75.21
38912;BME280;28444;48.056;14.408;2023-02-01T09:48:16;97752.69;;;4.43;75.84
38912;BME280;28444;48.056;14.408;2023-02-01T09:51:04;97749.50;;;4.39;76.42
38912;BME280;28444;48.056;14.408;2023-02-01T09:53:39;97762.19;;;4.31;77.23
38912;BME280;28444;48.056;14.408;2023-02-01T09:58:41;97766.97;;;4.06;81.16
38912;BME280;28444;48.056;14.408;2023-02-01T10:01:19;97768.13;;;3.92;82.87
38912;BME280;28444;48.056;14.408;2023-02-01T10:03:46;97761.13;;;3.83;83.13
38912;BME280;28444;48.056;14.408;2023-02-01T10:06:37;97760.44;;;3.77;82.80
38912;BME280;28444;48.056;14.408;2023-02-01T10:09:50;97775.16;;;3.81;83.07
38912;BME280;28444;48.056;14.408;2023-02-01T10:12:55;97750.97;;;3.89;82.23
38912;BME280;28444;48.056;14.408;2023-02-01T10:16:09;97745.47;;;3.95;82.90
38912;BME280;28444;48.056;14.408;2023-02-01T10:18:54;97723.16;;;4.07;80.98
38912;BME280;28444;48.056;14.408;2023-02-01T10:22:02;97725.28;;;4.15;80.23
38912;BME280;28444;48.056;14.408;2023-02-01T10:24:39;97722.03;;;4.16;80.86
38912;BME280;28444;48.056;14.408;2023-02-01T10:27:17;97718.59;;;4.16;80.97
38912;BME280;28444;48.056;14.408;2023-02-01T10:29:52;97714.00;;;4.10;81.79
38912;BME280;28444;48.056;14.408;2023-02-01T10:32:32;97715.03;;;4.07;81.04
38912;BME280;28444;48.056;14.408;2023-02-01T10:35:07;97728.19;;;4.17;80.47
38912;BME280;28444;48.056;14.408;2023-02-01T10:37:36;97741.13;;;4.24;80.40
38912;BME280;28444;48.056;14.408;2023-02-01T10:40:24;97724.44;;;4.20;79.12
38912;BME280;28444;48.056;14.408;2023-02-01T10:43:00;97719.63;;;4.13;80.75
38912;BME280;28444;48.056;14.408;2023-02-01T10:45:30;97720.66;;;4.09;80.76
38912;BME280;28444;48.056;14.408;2023-02-01T10:47:58;97703.69;;;4.09;81.49
38912;BME280;28444;48.056;14.408;2023-02-01T10:54:09;97706.06;;;4.31;80.03
38912;BME280;28444;48.056;14.408;2023-02-01T10:56:38;97699.97;;;4.44;78.00
38912;BME280;28444;48.056;14.408;2023-02-01T10:59:11;97697.38;;;4.52;77.41
38912;BME280;28444;48.056;14.408;2023-02-01T11:01:42;97693.34;;;4.58;77.08
38912;BME280;28444;48.056;14.408;2023-02-01T11:04:13;97697.31;;;4.71;75.52
38912;BME280;28444;48.056;14.408;2023-02-01T11:06:44;97687.31;;;4.79;75.80
38912;BME280;28444;48.056;14.408;2023-02-01T11:09:18;97705.34;;;4.76;73.77
38912;BME280;28444;48.056;14.408;2023-02-01T11:11:58;97704.81;;;4.78;74.87
38912;BME280;28444;48.056;14.408;2023-02-01T11:14:35;97715.66;;;4.78;74.00
38912;BME280;28444;48.056;14.408;2023-02-01T11:17:17;97687.84;;;4.77;73.48
38912;BME280;28444;48.056;14.408;2023-02-01T11:20:00;97666.28;;;4.85;73.05
38912;BME280;28444;48.056;14.408;2023-02-01T11:22:28;97686.19;;;4.88;72.21
38912;BME280;28444;48.056;14.408;2023-02-01T11:24:56;97705.25;;;4.95;71.13
38912;BME280;28444;48.056;14.408;2023-02-01T11:27:24;97723.50;;;5.08;72.65
38912;BME280;28444;48.056;14.408;2023-02-01T11:29:58;97713.59;;;5.11;71.71
38912;BME280;28444;48.056;14.408;2023-02-01T11:32:27;97708.31;;;5.05;71.17
38912;BME280;28444;48.056;14.408;2023-02-01T11:34:57;97714.66;;;5.07;71.01
38912;BME280;28444;48.056;14.408;2023-02-01T11:37:29;97722.38;;;5.17;71.27
38912;BME280;28444;48.056;14.408;2023-02-01T11:39:58;97730.09;;;5.26;70.37
38912;BME280;28444;48.056;14.408;2023-02-01T11:42:27;97706.09;;;5.30;70.50
38912;BME280;28444;48.056;14.408;2023-02-01T11:45:20;97727.16;;;5.37;69.90
38912;BME280;28444;48.056;14.408;2023-02-01T11:47:51;97747.41;;;5.36;69.77
38912;BME280;28444;48.056;14.408;2023-02-01T11:50:25;97745.94;;;5.35;71.09
38912;BME280;28444;48.056;14.408;2023-02-01T11:56:33;97755.91;;;4.87;79.44
38912;BME280;28444;48.056;14.408;2023-02-01T12:00:00;97728.31;;;4.24;81.94
38912;BME280;28444;48.056;14.408;2023-02-01T12:02:47;97717.53;;;4.38;83.27
38912;BME280;28444;48.056;14.408;2023-02-01T12:05:36;97702.53;;;4.69;79.03
38912;BME280;28444;48.056;14.408;2023-02-01T12:11:25;97681.69;;;5.30;72.35
38912;BME280;28444;48.056;14.408;2023-02-01T12:15:34;97678.56;;;5.39;71.35
38912;BME280;28444;48.056;14.408;2023-02-01T12:39:06;97673.94;;;5.47;69.62
38912;BME280;28444;48.056;14.408;2023-02-01T12:42:00;97674.16;;;5.49;70.05
38912;BME280;28444;48.056;14.408;2023-02-01T12:44:48;97667.88;;;5.54;69.55
38912;BME280;28444;48.056;14.408;2023-02-01T12:47:24;97661.91;;;5.69;69.90
38912;BME280;28444;48.056;14.408;2023-02-01T12:50:21;97667.41;;;5.77;70.65
38912;BME280;28444;48.056;14.408;2023-02-01T12:52:56;97664.19;;;5.78;69.97
38912;BME280;28444;48.056;14.408;2023-02-01T12:55:25;97652.19;;;5.74;69.50
38912;BME280;28444;48.056;14.408;2023-02-01T12:58:04;97668.66;;;5.76;68.77
38912;BME280;28444;48.056;14.408;2023-02-01T13:01:22;97676.94;;;5.70;70.18
38912;BME280;28444;48.056;14.408;2023-02-01T13:06:35;97684.16;;;5.68;70.10
38912;BME280;28444;48.056;14.408;2023-02-01T13:09:18;97678.63;;;5.60;69.73
38912;BME280;28444;48.056;14.408;2023-02-01T13:11:48;97691.06;;;5.55;70.34
38912;BME280;28444;48.056;14.408;2023-02-01T13:14:35;97691.47;;;5.60;70.21
38912;BME280;28444;48.056;14.408;2023-02-01T13:17:09;97680.63;;;5.60;70.96
38912;BME280;28444;48.056;14.408;2023-02-01T13:19:57;97692.63;;;5.51;71.76
38912;BME280;28444;48.056;14.408;2023-02-01T13:22:31;97700.44;;;5.54;71.00
38912;BME280;28444;48.056;14.408;2023-02-01T13:25:02;97675.00;;;5.44;70.02
38912;BME280;28444;48.056;14.408;2023-02-01T13:27:30;97690.44;;;5.36;70.62
38912;BME280;28444;48.056;14.408;2023-02-01T13:30:07;97701.31;;;5.23;70.91
38912;BME280;28444;48.056;14.408;2023-02-01T13:33:01;97702.69;;;5.16;70.70
38912;BME280;28444;48.056;14.408;2023-02-01T13:39:19;97693.38;;;5.12;72.72
38912;BME280;28444;48.056;14.408;2023-02-01T13:42:13;97697.34;;;5.11;73.59
38912;BME280;28444;48.056;14.408;2023-02-01T13:44:45;97703.59;;;5.05;73.81
38912;BME280;28444;48.056;14.408;2023-02-01T13:50:27;97698.47;;;4.89;73.53
38912;BME280;28444;48.056;14.408;2023-02-01T13:52:58;97708.59;;;4.88;74.63
38912;BME280;28444;48.056;14.408;2023-02-01T13:55:37;97715.28;;;4.87;74.22
38912;BME280;28444;48.056;14.408;2023-02-01T13:58:32;97739.00;;;4.81;74.93
38912;BME280;28444;48.056;14.408;2023-02-01T14:03:51;97705.44;;;4.71;75.72
38912;BME280;28444;48.056;14.408;2023-02-01T14:06:35;97712.72;;;4.63;75.80
38912;BME280;28444;48.056;14.408;2023-02-01T14:09:14;97720.31;;;4.64;75.44
38912;BME280;28444;48.056;14.408;2023-02-01T14:11:48;97722.47;;;4.52;75.94
38912;BME280;28444;48.056;14.408;2023-02-01T14:14:39;97730.84;;;4.54;75.53
38912;BME280;28444;48.056;14.408;2023-02-01T14:19:35;97737.88;;;4.44;76.47
38912;BME280;28444;48.056;14.408;2023-02-01T14:25:01;97766.59;;;4.34;80.39
38912;BME280;28444;48.056;14.408;2023-02-01T14:27:30;97759.38;;;4.04;82.99
38912;BME280;28444;48.056;14.408;2023-02-01T14:30:06;97764.91;;;3.74;85.99
38912;BME280;28444;48.056;14.408;2023-02-01T14:32:36;97770.66;;;3.22;91.46
38912;BME280;28444;48.056;14.408;2023-02-01T14:35:28;97754.59;;;3.05;94.92
38912;BME280;28444;48.056;14.408;2023-02-01T14:37:59;97767.47;;;2.93;95.84
38912;BME280;28444;48.056;14.408;2023-02-01T14:40:29;97761.72;;;2.78;98.60
38912;BME280;28444;48.056;14.408;2023-02-01T14:42:56;97751.44;;;2.76;98.80